Hildegaard — C6QU3 — position and weather

sailwx.info

Track history (hours):
 
Tides and Currents Weather Stations Pressure Air Temp Water Temp Dewpoint Dewpoint Depression Visibility Wind Speed Wind Dir Waves Ship Positions

Hildegaard

Last reported at 2014-Jul-29 08:24 UTC. Time now 2014-Jul-29 08:41 UTC.
Position N 53°44' E 000°22'.

Length 248 m; draft 11.7 m.

Type: Ship (hazmat cat C). MMSI: 308574000.

Date/timePositionNaut miles runAvg speedWind from/ knotsBaromVisibWave heightAir tempDewpointWater temp
2014-Jul-29 08:24N 53°44' E 000°22'0 0.2
2014-Jul-29 07:30N 53°44' E 000°22'0 0.0
2014-Jul-29 06:30N 53°44' E 000°22'0 0.0
2014-Jul-29 05:30N 53°44' E 000°22'0 0.0
2014-Jul-29 04:27N 53°44' E 000°22'0 0.0
2014-Jul-29 03:09N 53°44' E 000°22'0 0.0
2014-Jul-29 02:27N 53°44' E 000°22'0 0.3
2014-Jul-29 01:27N 53°44' E 000°22'0 0.0
2014-Jul-29 00:12N 53°44' E 000°22'0 0.0
2014-Jul-28 23:18N 53°44' E 000°22'0 0.6
2014-Jul-28 22:32N 53°45' E 000°21'7 7.2
2014-Jul-28 21:34N 53°51' E 000°18'1010.0
2014-Jul-28 20:33N 54°01' E 000°11'1111.0
2014-Jul-28 19:33N 54°10' E 000°03'1211.8
2014-Jul-28 18:33N 54°20' W 000°10'1212.2
2014-Jul-28 17:33N 54°29' W 000°23'1211.7
2014-Jul-28 16:33N 54°37' W 000°39'1211.8
2014-Jul-28 15:34N 54°40' W 000°58'1 1.1
2014-Jul-28 14:31N 54°41' W 000°59'0 0.2
2014-Jul-28 13:31N 54°41' W 000°60'0 0.1
2014-Jul-28 12:31N 54°41' W 000°60'0 0.0
2014-Jul-28 11:31N 54°41' W 000°60'0 0.0
2014-Jul-28 10:31N 54°41' W 000°60'0 0.5
2014-Jul-28 09:31N 54°41' W 001°01'5 5.5
2014-Jul-28 08:33N 54°38' W 001°09'1 1.2
2014-Jul-28 07:33N 54°37' W 001°10'0 0.0
2014-Jul-28 06:21N 54°37' W 001°10'0 0.0
2014-Jul-28 05:30N 54°37' W 001°10'1 0.0
2014-Jul-27 06:28N 54°38' W 001°09'6 6.5
2014-Jul-27 05:33N 54°43' W 001°03'2 2.0
2014-Jul-27 04:31N 54°42' W 001°00'0 0.0
2014-Jul-27 03:31N 54°42' W 001°00'0 0.0
2014-Jul-27 02:31N 54°42' W 001°00'0 0.0
2014-Jul-27 01:31N 54°42' W 001°00'0 0.0
2014-Jul-27 00:28N 54°42' W 001°00'0 0.3
2014-Jul-26 23:31N 54°42' W 001°01'0 0.1
2014-Jul-26 22:31N 54°42' W 001°01'0 0.0
2014-Jul-26 21:28N 54°42' W 001°01'0 0.0
2014-Jul-26 20:31N 54°42' W 001°01'0 0.0
2014-Jul-26 19:31N 54°42' W 001°01'0 0.0
2014-Jul-26 18:31N 54°42' W 001°01'0 0.2
2014-Jul-26 17:31N 54°42' W 001°00'0 0.1
2014-Jul-26 16:31N 54°42' W 001°00'0 0.0
2014-Jul-26 15:31N 54°42' W 001°00'0 0.0
2014-Jul-26 14:25N 54°42' W 001°00'0 0.1
2014-Jul-26 12:31N 54°42' W 001°01'0 0.0
2014-Jul-26 11:19N 54°42' W 001°01'0 0.0
2014-Jul-26 10:31N 54°42' W 001°01'0 0.0
2014-Jul-26 09:22N 54°42' W 001°01'0 0.0
2014-Jul-26 08:22N 54°42' W 001°01'0 0.0
2014-Jul-26 07:25N 54°42' W 001°01'0 0.1
2014-Jul-26 06:25N 54°42' W 001°01'0 0.2
2014-Jul-26 05:28N 54°42' W 001°00'1 1.2
2014-Jul-26 04:33N 54°41' W 000°59'5 4.6
2014-Jul-26 03:34N 54°40' W 000°51'4 4.4
2014-Jul-26 02:34N 54°38' W 000°44'4 4.2
2014-Jul-26 01:33N 54°37' W 000°37'5 4.8
2014-Jul-26 00:32N 54°35' W 000°30'5 5.5
2014-Jul-25 23:34N 54°31' W 000°24'6 6.0
2014-Jul-25 22:34N 54°26' W 000°18'6 6.1
2014-Jul-25 21:34N 54°21' W 000°12'6 6.1
2014-Jul-25 20:34N 54°16' W 000°05'6 6.2
2014-Jul-25 19:33N 54°11' E 000°01'5 4.8
2014-Jul-25 18:34N 54°06' E 000°04'5 4.5
2014-Jul-25 17:33N 54°02' E 000°00'1 0.7
2014-Jul-25 16:31N 54°02' W 000°00'0 0.0
2014-Jul-25 15:31N 54°02' W 000°00'0 0.0
2014-Jul-25 14:28N 54°02' W 000°00'0 0.0
2014-Jul-25 13:31N 54°02' W 000°00'0 0.0
2014-Jul-25 12:31N 54°02' W 000°00'0 0.0
2014-Jul-25 11:31N 54°02' W 000°00'0 0.0
2014-Jul-25 10:31N 54°02' W 000°00'0 0.2
2014-Jul-25 09:10N 54°02' W 000°00'0 0.1
2014-Jul-25 08:22N 54°02' W 000°00'0 0.1
2014-Jul-25 07:31N 54°02' W 000°00'0 0.2
2014-Jul-25 06:28N 54°02' W 000°00'0 0.1
2014-Jul-25 05:31N 54°02' W 000°00'0 0.0
2014-Jul-25 04:31N 54°02' W 000°00'0 0.0
2014-Jul-25 03:28N 54°02' W 000°00'0 0.0
2014-Jul-25 02:31N 54°02' W 000°00'0 0.0
2014-Jul-25 01:31N 54°02' W 000°00'0 0.0
2014-Jul-25 00:31N 54°02' W 000°00'0 0.0
2014-Jul-24 23:31N 54°02' W 000°00'0 0.0
2014-Jul-24 22:31N 54°02' W 000°00'0 0.2
2014-Jul-24 21:22N 54°02' W 000°00'0 0.1
2014-Jul-24 20:25N 54°02' W 000°00'0 0.0
2014-Jul-24 19:31N 54°02' W 000°00'0 0.1
2014-Jul-24 18:25N 54°02' W 000°00'0 0.1
2014-Jul-24 17:31N 54°02' W 000°00'0 0.0
2014-Jul-24 16:31N 54°02' W 000°00'0 0.0
2014-Jul-24 15:31N 54°02' W 000°00'0 0.0
2014-Jul-24 14:31N 54°02' W 000°00'0 0.0
2014-Jul-24 13:31N 54°02' W 000°00'0 0.0
2014-Jul-24 12:31N 54°02' W 000°00'0 0.0
2014-Jul-24 11:28N 54°02' W 000°00'0 0.0
2014-Jul-24 10:31N 54°02' W 000°00'0 0.0
2014-Jul-24 09:28N 54°02' W 000°00'0 0.1
2014-Jul-24 07:31N 54°02' W 000°00'0 0.1
2014-Jul-24 06:25N 54°02' W 000°00'0 0.1
2014-Jul-24 05:31N 54°02' W 000°00'0 0.0
2014-Jul-24 04:28N 54°02' W 000°00'0 0.0
2014-Jul-24 03:31N 54°02' W 000°00'0 0.0
2014-Jul-24 02:31N 54°02' W 000°00'0 0.0
2014-Jul-24 01:31N 54°02' W 000°00'0 0.0
2014-Jul-24 00:31N 54°02' W 000°00'0 0.0
2014-Jul-23 23:28N 54°02' W 000°00'0 0.0
2014-Jul-23 22:31N 54°02' W 000°00'0 0.1
2014-Jul-23 21:31N 54°02' W 000°00'0 0.1
2014-Jul-23 20:25N 54°02' W 000°00'0 0.1
2014-Jul-23 19:31N 54°02' W 000°00'0 0.1
2014-Jul-23 18:16N 54°02' W 000°00'0 0.1
2014-Jul-23 17:28N 54°02' W 000°00'0 0.0
2014-Jul-23 16:28N 54°02' W 000°00'0 0.0
2014-Jul-23 15:31N 54°02' W 000°00'0 0.0
2014-Jul-23 14:31N 54°02' W 000°00'0 0.0
2014-Jul-23 13:31N 54°02' W 000°00'0 0.0
2014-Jul-23 12:31N 54°02' W 000°00'0 0.0
2014-Jul-23 11:28N 54°02' W 000°00'0 0.0
2014-Jul-23 10:31N 54°02' W 000°00'0 0.0
2014-Jul-23 09:31N 54°02' W 000°00'0 0.0
2014-Jul-23 08:28N 54°02' W 000°00'0 0.0
2014-Jul-23 05:31N 54°02' W 000°00'0 0.0
2014-Jul-23 04:31N 54°02' W 000°00'0 0.0
2014-Jul-23 03:31N 54°02' W 000°00'0 0.0
2014-Jul-23 02:31N 54°02' W 000°00'0 0.0
2014-Jul-23 01:31N 54°02' W 000°00'0 0.0
2014-Jul-23 00:31N 54°02' W 000°00'0 0.0
2014-Jul-22 23:31N 54°02' W 000°00'0 0.0
2014-Jul-22 22:31N 54°02' W 000°00'0 0.0
2014-Jul-22 21:31N 54°02' W 000°00'0 0.1
2014-Jul-22 20:28N 54°02' W 000°00'0 0.1
2014-Jul-22 19:31N 54°02' W 000°00'0 0.0
2014-Jul-22 18:31N 54°02' W 000°00'0 0.1
2014-Jul-22 17:31N 54°02' W 000°00'0 0.1
2014-Jul-22 16:28N 54°02' W 000°00'0 0.1
2014-Jul-22 15:31N 54°02' W 000°00'0 0.0
2014-Jul-22 14:31N 54°02' W 000°00'0 0.0
2014-Jul-22 13:31N 54°02' W 000°00'0 0.0
2014-Jul-22 12:31N 54°02' W 000°00'0 0.0
2014-Jul-22 11:31N 54°02' W 000°00'0 0.0
2014-Jul-22 10:31N 54°02' W 000°00'0 0.0
2014-Jul-22 09:31N 54°02' W 000°00'0 0.0
2014-Jul-22 08:31N 54°02' W 000°00'0 0.2
2014-Jul-22 07:31N 54°02' W 000°00'0 0.1
2014-Jul-22 06:28N 54°02' W 000°00'0 0.0
2014-Jul-22 05:25N 54°02' W 000°00'0 0.2
2014-Jul-22 04:25N 54°02' W 000°00'0 0.1
2014-Jul-22 03:31N 54°02' W 000°00'0 0.0
2014-Jul-22 02:31N 54°02' W 000°00'0 0.0
2014-Jul-22 01:31N 54°02' W 000°00'0 0.0
2014-Jul-22 00:31N 54°02' W 000°00'0 0.0
2014-Jul-21 23:31N 54°02' W 000°00'0 0.0
2014-Jul-21 22:31N 54°02' W 000°00'0 0.0
2014-Jul-21 21:31N 54°02' W 000°00'0 0.0
2014-Jul-21 20:28N 54°02' W 000°00'0 0.1
2014-Jul-21 20:13N 54°02' W 000°00'0 0.1
2014-Jul-21 18:31N 54°02' W 000°00'0 0.0
2014-Jul-21 17:31N 54°02' W 000°00'0 0.1
2014-Jul-21 16:31N 54°02' W 000°00'0 0.1
2014-Jul-21 15:31N 54°02' W 000°00'0 0.1
2014-Jul-21 14:31N 54°02' W 000°00'0 0.0
2014-Jul-21 13:31N 54°02' W 000°00'0 0.0
2014-Jul-21 12:31N 54°02' W 000°00'0 0.0
2014-Jul-21 11:31N 54°02' W 000°00'0 0.0
2014-Jul-21 10:31N 54°02' W 000°00'0 0.0
2014-Jul-21 09:31N 54°02' W 000°00'0 0.0
2014-Jul-21 08:31N 54°02' W 000°00'0 0.0
2014-Jul-21 07:31N 54°02' W 000°00'0 0.1
2014-Jul-21 06:19N 54°02' W 000°00'0 0.1
2014-Jul-21 05:22N 54°02' W 000°00'0 0.0
2014-Jul-21 04:28N 54°02' W 000°00'0 0.0
2014-Jul-21 03:28N 54°02' W 000°00'0 0.1
2014-Jul-21 02:25N 54°02' W 000°00'0 0.2
2014-Jul-21 01:31N 54°02' W 000°00'0 0.0
2014-Jul-21 00:28N 54°02' W 000°00'0 0.0
2014-Jul-20 23:31N 54°02' W 000°00'0 0.0
2014-Jul-20 22:31N 54°02' W 000°00'0 0.0
2014-Jul-20 21:31N 54°02' W 000°00'0 0.0
2014-Jul-20 20:28N 54°02' W 000°00'0 0.0
2014-Jul-20 19:31N 54°02' W 000°00'0 0.1
2014-Jul-20 18:31N 54°02' W 000°00'0 0.2
2014-Jul-20 17:31N 54°02' W 000°00'0 0.1
2014-Jul-20 16:25N 54°02' W 000°00'0 0.6
2014-Jul-20 15:33N 54°02' W 000°01'9 8.8
2014-Jul-20 14:33N 53°57' E 000°11'1111.3
2014-Jul-20 13:33N 53°47' E 000°19'10 9.2
2014-Jul-20 12:30N 53°37' E 000°21'8 8.6
2014-Jul-20 11:33N 53°33' E 000°09'2 1.6
2014-Jul-20 10:28N 53°32' E 000°07'0 0.0
2014-Jul-20 09:31N 53°32' E 000°07'0 0.0
2014-Jul-20 08:22N 53°32' E 000°07'0 0.0
2014-Jul-20 07:19N 53°32' E 000°07'0 0.0
2014-Jul-20 06:25N 53°32' E 000°07'0 0.2
2014-Jul-20 05:25N 53°32' E 000°07'0 0.1
2014-Jul-20 04:31N 53°32' E 000°07'0 0.0
2014-Jul-20 03:31N 53°32' E 000°07'0 0.0
2014-Jul-20 02:31N 53°32' E 000°07'0 0.1
2014-Jul-20 01:28N 53°32' E 000°07'0 0.3
2014-Jul-20 00:31N 53°32' E 000°07'0 0.1
2014-Jul-19 23:28N 53°32' E 000°07'0 0.0
2014-Jul-19 22:25N 53°32' E 000°07'0 0.0
2014-Jul-19 21:31N 53°32' E 000°07'0 0.0
2014-Jul-19 19:31N 53°32' E 000°07'0 0.0
2014-Jul-19 18:19N 53°32' E 000°07'0 0.2
2014-Jul-19 17:19N 53°32' E 000°07'0 0.1
2014-Jul-19 16:31N 53°32' E 000°07'0 0.1
2014-Jul-19 15:28N 53°32' E 000°07'0 0.0
2014-Jul-19 14:31N 53°32' E 000°07'0 0.0
2014-Jul-19 13:25N 53°32' E 000°07'0 0.1
2014-Jul-19 12:31N 53°32' E 000°07'0 0.0
2014-Jul-19 11:28N 53°32' E 000°07'0 0.5
2014-Jul-19 10:33N 53°32' E 000°08'6 5.6
2014-Jul-19 09:33N 53°35' E 000°17'8 8.0
2014-Jul-19 08:33N 53°41' E 000°24'  
Track history (hours):
 
Tides and Currents Weather Stations Pressure Air Temp Water Temp Dewpoint Dewpoint Depression Visibility Wind Speed Wind Dir Waves Ship Positions

Hildegaard

Last reported at 2014-Jul-29 08:24 UTC. Time now 2014-Jul-29 08:41 UTC.
Position N 53°44' E 000°22'.

Length 248 m; draft 11.7 m.

Type: Ship (hazmat cat C). MMSI: 308574000.

Date/timePositionNaut miles runAvg speedWind from/ knotsBaromVisibWave heightAir tempDewpointWater temp
2014-Jul-29 08:24N 53°44' E 000°22'0 0.2
2014-Jul-29 07:30N 53°44' E 000°22'0 0.0
2014-Jul-29 06:30N 53°44' E 000°22'0 0.0
2014-Jul-29 05:30N 53°44' E 000°22'0 0.0
2014-Jul-29 04:27N 53°44' E 000°22'0 0.0
2014-Jul-29 03:09N 53°44' E 000°22'0 0.0
2014-Jul-29 02:27N 53°44' E 000°22'0 0.3
2014-Jul-29 01:27N 53°44' E 000°22'0 0.0
2014-Jul-29 00:12N 53°44' E 000°22'0 0.0
2014-Jul-28 23:18N 53°44' E 000°22'0 0.6
2014-Jul-28 22:32N 53°45' E 000°21'7 7.2
2014-Jul-28 21:34N 53°51' E 000°18'1010.0
2014-Jul-28 20:33N 54°01' E 000°11'1111.0
2014-Jul-28 19:33N 54°10' E 000°03'1211.8
2014-Jul-28 18:33N 54°20' W 000°10'1212.2
2014-Jul-28 17:33N 54°29' W 000°23'1211.7
2014-Jul-28 16:33N 54°37' W 000°39'1211.8
2014-Jul-28 15:34N 54°40' W 000°58'1 1.1
2014-Jul-28 14:31N 54°41' W 000°59'0 0.2
2014-Jul-28 13:31N 54°41' W 000°60'0 0.1
2014-Jul-28 12:31N 54°41' W 000°60'0 0.0
2014-Jul-28 11:31N 54°41' W 000°60'0 0.0
2014-Jul-28 10:31N 54°41' W 000°60'0 0.5
2014-Jul-28 09:31N 54°41' W 001°01'5 5.5
2014-Jul-28 08:33N 54°38' W 001°09'1 1.2
2014-Jul-28 07:33N 54°37' W 001°10'0 0.0
2014-Jul-28 06:21N 54°37' W 001°10'0 0.0
2014-Jul-28 05:30N 54°37' W 001°10'1 0.0
2014-Jul-27 06:28N 54°38' W 001°09'6 6.5
2014-Jul-27 05:33N 54°43' W 001°03'2 2.0
2014-Jul-27 04:31N 54°42' W 001°00'0 0.0
2014-Jul-27 03:31N 54°42' W 001°00'0 0.0
2014-Jul-27 02:31N 54°42' W 001°00'0 0.0
2014-Jul-27 01:31N 54°42' W 001°00'0 0.0
2014-Jul-27 00:28N 54°42' W 001°00'0 0.3
2014-Jul-26 23:31N 54°42' W 001°01'0 0.1
2014-Jul-26 22:31N 54°42' W 001°01'0 0.0
2014-Jul-26 21:28N 54°42' W 001°01'0 0.0
2014-Jul-26 20:31N 54°42' W 001°01'0 0.0
2014-Jul-26 19:31N 54°42' W 001°01'0 0.0
2014-Jul-26 18:31N 54°42' W 001°01'0 0.2
2014-Jul-26 17:31N 54°42' W 001°00'0 0.1
2014-Jul-26 16:31N 54°42' W 001°00'0 0.0
2014-Jul-26 15:31N 54°42' W 001°00'0 0.0
2014-Jul-26 14:25N 54°42' W 001°00'0 0.1
2014-Jul-26 12:31N 54°42' W 001°01'0 0.0
2014-Jul-26 11:19N 54°42' W 001°01'0 0.0
2014-Jul-26 10:31N 54°42' W 001°01'0 0.0
2014-Jul-26 09:22N 54°42' W 001°01'0 0.0
2014-Jul-26 08:22N 54°42' W 001°01'0 0.0
2014-Jul-26 07:25N 54°42' W 001°01'0 0.1
2014-Jul-26 06:25N 54°42' W 001°01'0 0.2
2014-Jul-26 05:28N 54°42' W 001°00'1 1.2
2014-Jul-26 04:33N 54°41' W 000°59'5 4.6
2014-Jul-26 03:34N 54°40' W 000°51'4 4.4
2014-Jul-26 02:34N 54°38' W 000°44'4 4.2
2014-Jul-26 01:33N 54°37' W 000°37'5 4.8
2014-Jul-26 00:32N 54°35' W 000°30'5 5.5
2014-Jul-25 23:34N 54°31' W 000°24'6 6.0
2014-Jul-25 22:34N 54°26' W 000°18'6 6.1
2014-Jul-25 21:34N 54°21' W 000°12'6 6.1
2014-Jul-25 20:34N 54°16' W 000°05'6 6.2
2014-Jul-25 19:33N 54°11' E 000°01'5 4.8
2014-Jul-25 18:34N 54°06' E 000°04'5 4.5
2014-Jul-25 17:33N 54°02' E 000°00'1 0.7
2014-Jul-25 16:31N 54°02' W 000°00'0 0.0
2014-Jul-25 15:31N 54°02' W 000°00'0 0.0
2014-Jul-25 14:28N 54°02' W 000°00'0 0.0
2014-Jul-25 13:31N 54°02' W 000°00'0 0.0
2014-Jul-25 12:31N 54°02' W 000°00'0 0.0
2014-Jul-25 11:31N 54°02' W 000°00'0 0.0
2014-Jul-25 10:31N 54°02' W 000°00'0 0.2
2014-Jul-25 09:10N 54°02' W 000°00'0 0.1
2014-Jul-25 08:22N 54°02' W 000°00'0 0.1
2014-Jul-25 07:31N 54°02' W 000°00'0 0.2
2014-Jul-25 06:28N 54°02' W 000°00'0 0.1
2014-Jul-25 05:31N 54°02' W 000°00'0 0.0
2014-Jul-25 04:31N 54°02' W 000°00'0 0.0
2014-Jul-25 03:28N 54°02' W 000°00'0 0.0
2014-Jul-25 02:31N 54°02' W 000°00'0 0.0
2014-Jul-25 01:31N 54°02' W 000°00'0 0.0
2014-Jul-25 00:31N 54°02' W 000°00'0 0.0
2014-Jul-24 23:31N 54°02' W 000°00'0 0.0
2014-Jul-24 22:31N 54°02' W 000°00'0 0.2
2014-Jul-24 21:22N 54°02' W 000°00'0 0.1
2014-Jul-24 20:25N 54°02' W 000°00'0 0.0
2014-Jul-24 19:31N 54°02' W 000°00'0 0.1
2014-Jul-24 18:25N 54°02' W 000°00'0 0.1
2014-Jul-24 17:31N 54°02' W 000°00'0 0.0
2014-Jul-24 16:31N 54°02' W 000°00'0 0.0
2014-Jul-24 15:31N 54°02' W 000°00'0 0.0
2014-Jul-24 14:31N 54°02' W 000°00'0 0.0
2014-Jul-24 13:31N 54°02' W 000°00'0 0.0
2014-Jul-24 12:31N 54°02' W 000°00'0 0.0
2014-Jul-24 11:28N 54°02' W 000°00'0 0.0
2014-Jul-24 10:31N 54°02' W 000°00'0 0.0
2014-Jul-24 09:28N 54°02' W 000°00'0 0.1
2014-Jul-24 07:31N 54°02' W 000°00'0 0.1
2014-Jul-24 06:25N 54°02' W 000°00'0 0.1
2014-Jul-24 05:31N 54°02' W 000°00'0 0.0
2014-Jul-24 04:28N 54°02' W 000°00'0 0.0
2014-Jul-24 03:31N 54°02' W 000°00'0 0.0
2014-Jul-24 02:31N 54°02' W 000°00'0 0.0
2014-Jul-24 01:31N 54°02' W 000°00'0 0.0
2014-Jul-24 00:31N 54°02' W 000°00'0 0.0
2014-Jul-23 23:28N 54°02' W 000°00'0 0.0
2014-Jul-23 22:31N 54°02' W 000°00'0 0.1
2014-Jul-23 21:31N 54°02' W 000°00'0 0.1
2014-Jul-23 20:25N 54°02' W 000°00'0 0.1
2014-Jul-23 19:31N 54°02' W 000°00'0 0.1
2014-Jul-23 18:16N 54°02' W 000°00'0 0.1
2014-Jul-23 17:28N 54°02' W 000°00'0 0.0
2014-Jul-23 16:28N 54°02' W 000°00'0 0.0
2014-Jul-23 15:31N 54°02' W 000°00'0 0.0
2014-Jul-23 14:31N 54°02' W 000°00'0 0.0
2014-Jul-23 13:31N 54°02' W 000°00'0 0.0
2014-Jul-23 12:31N 54°02' W 000°00'0 0.0
2014-Jul-23 11:28N 54°02' W 000°00'0 0.0
2014-Jul-23 10:31N 54°02' W 000°00'0 0.0
2014-Jul-23 09:31N 54°02' W 000°00'0 0.0
2014-Jul-23 08:28N 54°02' W 000°00'0 0.0
2014-Jul-23 05:31N 54°02' W 000°00'0 0.0
2014-Jul-23 04:31N 54°02' W 000°00'0 0.0
2014-Jul-23 03:31N 54°02' W 000°00'0 0.0
2014-Jul-23 02:31N 54°02' W 000°00'0 0.0
2014-Jul-23 01:31N 54°02' W 000°00'0 0.0
2014-Jul-23 00:31N 54°02' W 000°00'0 0.0
2014-Jul-22 23:31N 54°02' W 000°00'0 0.0
2014-Jul-22 22:31N 54°02' W 000°00'0 0.0
2014-Jul-22 21:31N 54°02' W 000°00'0 0.1
2014-Jul-22 20:28N 54°02' W 000°00'0 0.1
2014-Jul-22 19:31N 54°02' W 000°00'0 0.0
2014-Jul-22 18:31N 54°02' W 000°00'0 0.1
2014-Jul-22 17:31N 54°02' W 000°00'0 0.1
2014-Jul-22 16:28N 54°02' W 000°00'0 0.1
2014-Jul-22 15:31N 54°02' W 000°00'0 0.0
2014-Jul-22 14:31N 54°02' W 000°00'0 0.0
2014-Jul-22 13:31N 54°02' W 000°00'0 0.0
2014-Jul-22 12:31N 54°02' W 000°00'0 0.0
2014-Jul-22 11:31N 54°02' W 000°00'0 0.0
2014-Jul-22 10:31N 54°02' W 000°00'0 0.0
2014-Jul-22 09:31N 54°02' W 000°00'0 0.0
2014-Jul-22 08:31N 54°02' W 000°00'0 0.2
2014-Jul-22 07:31N 54°02' W 000°00'0 0.1
2014-Jul-22 06:28N 54°02' W 000°00'0 0.0
2014-Jul-22 05:25N 54°02' W 000°00'0 0.2
2014-Jul-22 04:25N 54°02' W 000°00'0 0.1
2014-Jul-22 03:31N 54°02' W 000°00'0 0.0
2014-Jul-22 02:31N 54°02' W 000°00'0 0.0
2014-Jul-22 01:31N 54°02' W 000°00'0 0.0
2014-Jul-22 00:31N 54°02' W 000°00'0 0.0
2014-Jul-21 23:31N 54°02' W 000°00'0 0.0
2014-Jul-21 22:31N 54°02' W 000°00'0 0.0
2014-Jul-21 21:31N 54°02' W 000°00'0 0.0
2014-Jul-21 20:28N 54°02' W 000°00'0 0.1
2014-Jul-21 20:13N 54°02' W 000°00'0 0.1
2014-Jul-21 18:31N 54°02' W 000°00'0 0.0
2014-Jul-21 17:31N 54°02' W 000°00'0 0.1
2014-Jul-21 16:31N 54°02' W 000°00'0 0.1
2014-Jul-21 15:31N 54°02' W 000°00'0 0.1
2014-Jul-21 14:31N 54°02' W 000°00'0 0.0
2014-Jul-21 13:31N 54°02' W 000°00'0 0.0
2014-Jul-21 12:31N 54°02' W 000°00'0 0.0
2014-Jul-21 11:31N 54°02' W 000°00'0 0.0
2014-Jul-21 10:31N 54°02' W 000°00'0 0.0
2014-Jul-21 09:31N 54°02' W 000°00'0 0.0
2014-Jul-21 08:31N 54°02' W 000°00'0 0.0
2014-Jul-21 07:31N 54°02' W 000°00'0 0.1
2014-Jul-21 06:19N 54°02' W 000°00'0 0.1
2014-Jul-21 05:22N 54°02' W 000°00'0 0.0
2014-Jul-21 04:28N 54°02' W 000°00'0 0.0
2014-Jul-21 03:28N 54°02' W 000°00'0 0.1
2014-Jul-21 02:25N 54°02' W 000°00'0 0.2
2014-Jul-21 01:31N 54°02' W 000°00'0 0.0
2014-Jul-21 00:28N 54°02' W 000°00'0 0.0
2014-Jul-20 23:31N 54°02' W 000°00'0 0.0
2014-Jul-20 22:31N 54°02' W 000°00'0 0.0
2014-Jul-20 21:31N 54°02' W 000°00'0 0.0
2014-Jul-20 20:28N 54°02' W 000°00'0 0.0
2014-Jul-20 19:31N 54°02' W 000°00'0 0.1
2014-Jul-20 18:31N 54°02' W 000°00'0 0.2
2014-Jul-20 17:31N 54°02' W 000°00'0 0.1
2014-Jul-20 16:25N 54°02' W 000°00'0 0.6
2014-Jul-20 15:33N 54°02' W 000°01'9 8.8
2014-Jul-20 14:33N 53°57' E 000°11'1111.3
2014-Jul-20 13:33N 53°47' E 000°19'10 9.2
2014-Jul-20 12:30N 53°37' E 000°21'8 8.6
2014-Jul-20 11:33N 53°33' E 000°09'2 1.6
2014-Jul-20 10:28N 53°32' E 000°07'0 0.0
2014-Jul-20 09:31N 53°32' E 000°07'0 0.0
2014-Jul-20 08:22N 53°32' E 000°07'0 0.0
2014-Jul-20 07:19N 53°32' E 000°07'0 0.0
2014-Jul-20 06:25N 53°32' E 000°07'0 0.2
2014-Jul-20 05:25N 53°32' E 000°07'0 0.1
2014-Jul-20 04:31N 53°32' E 000°07'0 0.0
2014-Jul-20 03:31N 53°32' E 000°07'0 0.0
2014-Jul-20 02:31N 53°32' E 000°07'0 0.1
2014-Jul-20 01:28N 53°32' E 000°07'0 0.3
2014-Jul-20 00:31N 53°32' E 000°07'0 0.1
2014-Jul-19 23:28N 53°32' E 000°07'0 0.0
2014-Jul-19 22:25N 53°32' E 000°07'0 0.0
2014-Jul-19 21:31N 53°32' E 000°07'0 0.0
2014-Jul-19 19:31N 53°32' E 000°07'0 0.0
2014-Jul-19 18:19N 53°32' E 000°07'0 0.2
2014-Jul-19 17:19N 53°32' E 000°07'0 0.1
2014-Jul-19 16:31N 53°32' E 000°07'0 0.1
2014-Jul-19 15:28N 53°32' E 000°07'0 0.0
2014-Jul-19 14:31N 53°32' E 000°07'0 0.0
2014-Jul-19 13:25N 53°32' E 000°07'0 0.1
2014-Jul-19 12:31N 53°32' E 000°07'0 0.0
2014-Jul-19 11:28N 53°32' E 000°07'0 0.5
2014-Jul-19 10:33N 53°32' E 000°08'6 5.6
2014-Jul-19 09:33N 53°35' E 000°17'8 8.0
2014-Jul-19 08:33N 53°41' E 000°24'  

Dump ship's entire track history